Time;durP1;ratioP1;P1;durP2;ratioP2;P2;SDS_P1;SDS_P2;PMS_P1;PMS_P2;Temp;Humidity;BMP_temperature;BMP_pressure;BME280_temperature;BME280_humidity;BME280_pressure;Samples;Min_cycle;Max_cycle;Signal;HPM_P1;HPM_P2
2022/09/19 00:02:18;;;;;;;3.33;2.23;;;;;;;;;;4951664;28;20309;-79
2022/09/19 00:04:44;;;;;;;4.60;2.50;;;;;;;;;;4951433;28;20194;-78
2022/09/19 00:07:10;;;;;;;4.10;2.70;;;;;;;;;;4951774;28;20205;-78
2022/09/19 00:09:36;;;;;;;5.13;2.60;;;;;;;;;;4950321;28;20626;-78
2022/09/19 00:12:02;;;;;;;4.03;2.67;;;;;;;;;;4951777;28;20213;-78
2022/09/19 00:14:30;;;;;;;5.80;3.33;;;;;;;;;;4950951;28;20197;-78
2022/09/19 00:16:58;;;;;;;6.13;3.20;;;;;;;;;;4950234;28;20228;-78
2022/09/19 00:19:24;;;;;;;6.17;3.10;;;;;;;;;;4951862;28;20558;-77
2022/09/19 00:21:53;;;;;;;3.83;2.83;;;;;;;;;;4950118;28;20200;-77
2022/09/19 00:27:05;;;;;;;3.50;3.20;;;;;;;;;;4952235;28;20751;-79
2022/09/19 00:29:35;;;;;;;4.37;3.10;;;;;;;;;;4951050;28;20217;-78
2022/09/19 00:32:01;;;;;;;5.27;3.87;;;;;;;;;;4951716;28;20269;-78
2022/09/19 00:34:28;;;;;;;3.97;3.57;;;;;;;;;;4951162;28;20665;-78
2022/09/19 00:36:54;;;;;;;5.63;3.30;;;;;;;;;;4951048;28;20244;-78
2022/09/19 00:39:20;;;;;;;6.40;3.40;;;;;;;;;;4951856;28;20209;-77
2022/09/19 00:41:47;;;;;;;7.43;3.60;;;;;;;;;;4951126;28;20222;-77
2022/09/19 00:44:22;;;;;;;4.97;3.07;;;;;;;;;;4951578;28;20196;-78
2022/09/19 00:46:51;;;;;;;3.30;2.93;;;;;;;;;;4950520;28;20865;-79
2022/09/19 00:49:18;;;;;;;5.70;3.07;;;;;;;;;;4949895;28;20193;-79
2022/09/19 00:51:49;;;;;;;5.10;3.73;;;;;;;;;;4948860;28;20586;-78
2022/09/19 00:54:16;;;;;;;6.43;3.10;;;;;;;;;;4950823;28;20189;-78
2022/09/19 00:56:45;;;;;;;4.90;2.97;;;;;;;;;;4950690;28;20203;-78
2022/09/19 00:59:11;;;;;;;6.47;3.00;;;;;;;;;;4951470;28;20190;-76
2022/09/19 01:01:38;;;;;;;5.40;2.80;;;;;;;;;;4950039;28;20221;-79
2022/09/19 01:04:14;;;;;;;4.17;2.53;;;;;;;;;;4951129;28;20566;-78
2022/09/19 01:06:53;;;;;;;4.13;2.77;;;;;;;;;;4949512;29;20245;-78
2022/09/19 01:09:38;;;;;;;5.00;3.10;;;;;;;;;;4949053;28;20189;-77
2022/09/19 01:12:07;;;;;;;3.83;3.20;;;;;;;;;;4949555;28;20213;-77
2022/09/19 01:14:53;;;;;;;3.20;2.90;;;;;;;;;;4948969;28;20285;-78
2022/09/19 01:17:23;;;;;;;3.43;3.00;;;;;;;;;;4949007;28;20201;-78
2022/09/19 01:20:10;;;;;;;3.53;3.23;;;;;;;;;;4949080;28;20190;-76
2022/09/19 01:22:55;;;;;;;4.53;3.00;;;;;;;;;;4950745;28;20185;-76
2022/09/19 01:25:31;;;;;;;4.40;2.93;;;;;;;;;;4949919;28;20232;-77
2022/09/19 01:28:14;;;;;;;3.53;3.00;;;;;;;;;;4950741;28;20806;-79
2022/09/19 01:31:16;;;;;;;4.00;3.40;;;;;;;;;;4948618;28;20472;-78
2022/09/19 01:33:35;;;;;;;5.67;3.33;;;;;;;;;;4950506;28;20558;-76
2022/09/19 01:36:01;;;;;;;3.87;3.10;;;;;;;;;;4964507;28;20213;-79
2022/09/19 01:38:28;;;;;;;4.97;3.57;;;;;;;;;;4950341;28;20189;-79
2022/09/19 01:40:54;;;;;;;4.50;3.20;;;;;;;;;;4950157;28;20355;-78
2022/09/19 01:43:20;;;;;;;4.07;3.00;;;;;;;;;;4950113;28;20193;-77
2022/09/19 01:45:47;;;;;;;2.87;2.63;;;;;;;;;;4949502;28;20248;-79
2022/09/19 01:48:16;;;;;;;3.83;2.40;;;;;;;;;;4949851;28;20558;-78
2022/09/19 01:51:05;;;;;;;2.50;2.27;;;;;;;;;;4949807;28;20256;-77
2022/09/19 01:53:54;;;;;;;3.40;1.90;;;;;;;;;;4934513;28;20194;-76
2022/09/19 01:56:28;;;;;;;3.47;2.20;;;;;;;;;;4945726;28;20213;-79
2022/09/19 01:59:12;;;;;;;3.13;1.97;;;;;;;;;;4950470;28;20209;-78
2022/09/19 02:01:59;;;;;;;2.73;1.80;;;;;;;;;;4949775;28;20223;-78
2022/09/19 02:04:28;;;;;;;2.33;1.60;;;;;;;;;;4949862;28;20208;-78
2022/09/19 02:07:12;;;;;;;2.93;1.80;;;;;;;;;;4949188;28;20228;-79
2022/09/19 02:09:48;;;;;;;4.90;1.60;;;;;;;;;;4949342;28;20664;-77
2022/09/19 02:12:16;;;;;;;4.20;1.67;;;;;;;;;;4948073;28;20217;-79
2022/09/19 02:14:50;;;;;;;2.83;1.20;;;;;;;;;;4949628;28;20631;-79
2022/09/19 02:17:21;;;;;;;3.10;1.30;;;;;;;;;;4949561;28;20687;-79
2022/09/19 02:19:50;;;;;;;6.07;1.80;;;;;;;;;;4949858;28;20668;-77
2022/09/19 02:22:16;;;;;;;1.57;1.00;;;;;;;;;;4947859;28;20648;-79
2022/09/19 02:24:45;;;;;;;4.27;1.23;;;;;;;;;;4949679;28;20197;-76
2022/09/19 02:27:15;;;;;;;1.40;0.93;;;;;;;;;;4949340;28;20209;-78
2022/09/19 02:29:45;;;;;;;3.03;1.00;;;;;;;;;;4949951;28;20324;-78
2022/09/19 02:32:12;;;;;;;1.87;0.90;;;;;;;;;;4948363;28;20216;-78
2022/09/19 02:34:38;;;;;;;2.47;1.20;;;;;;;;;;4949398;28;20603;-79
2022/09/19 02:37:21;;;;;;;2.10;1.00;;;;;;;;;;4949650;28;20210;-79
2022/09/19 02:39:51;;;;;;;2.47;1.20;;;;;;;;;;4949546;28;20632;-78
2022/09/19 02:42:23;;;;;;;2.53;1.00;;;;;;;;;;4949136;28;20649;-78
2022/09/19 02:44:52;;;;;;;3.27;1.40;;;;;;;;;;4949537;28;20189;-78
2022/09/19 02:47:21;;;;;;;2.37;1.27;;;;;;;;;;4964096;28;20300;-78
2022/09/19 02:49:59;;;;;;;3.63;1.63;;;;;;;;;;4949017;28;20186;-78
2022/09/19 02:52:29;;;;;;;4.40;1.40;;;;;;;;;;4948899;28;20288;-78
2022/09/19 02:54:57;;;;;;;4.70;1.87;;;;;;;;;;4949100;28;20558;-78
2022/09/19 02:57:24;;;;;;;2.77;1.37;;;;;;;;;;4948859;28;20233;-79
2022/09/19 02:59:55;;;;;;;2.90;1.60;;;;;;;;;;4952781;28;20272;-78
2022/09/19 03:02:23;;;;;;;3.97;1.50;;;;;;;;;;4951269;28;21013;-78
2022/09/19 03:04:54;;;;;;;3.30;1.33;;;;;;;;;;4952621;28;20194;-78
2022/09/19 03:07:25;;;;;;;4.30;1.40;;;;;;;;;;4967654;28;20348;-77
2022/09/19 03:09:57;;;;;;;2.40;1.57;;;;;;;;;;4967350;28;20231;-77
2022/09/19 03:12:28;;;;;;;5.60;1.90;;;;;;;;;;4952729;28;20667;-78
2022/09/19 03:14:58;;;;;;;3.07;1.60;;;;;;;;;;4952285;28;20255;-77
2022/09/19 03:17:27;;;;;;;3.40;1.87;;;;;;;;;;4952456;28;20225;-78
2022/09/19 03:19:53;;;;;;;2.47;1.60;;;;;;;;;;4951020;28;20185;-79
2022/09/19 03:22:19;;;;;;;3.70;1.77;;;;;;;;;;4952389;28;20195;-79
2022/09/19 03:24:45;;;;;;;4.93;1.63;;;;;;;;;;4952357;28;20540;-78
2022/09/19 03:27:11;;;;;;;5.37;1.80;;;;;;;;;;4967104;28;20260;-78
2022/09/19 03:29:37;;;;;;;4.97;1.90;;;;;;;;;;4967129;28;20189;-79
2022/09/19 03:32:03;;;;;;;3.30;2.30;;;;;;;;;;4951929;28;20221;-77
2022/09/19 03:34:33;;;;;;;3.70;2.40;;;;;;;;;;4950838;28;20185;-76
2022/09/19 03:36:59;;;;;;;6.23;4.80;;;;;;;;;;4951665;28;20268;-77
2022/09/19 03:39:25;;;;;;;19.90;12.07;;;;;;;;;;4951697;28;20182;-79
2022/09/19 03:41:52;;;;;;;19.73;11.70;;;;;;;;;;4951918;28;20194;-77
2022/09/19 03:44:19;;;;;;;15.77;9.03;;;;;;;;;;4952127;28;20182;-78
2022/09/19 03:46:46;;;;;;;23.93;15.20;;;;;;;;;;4951006;28;20229;-77
2022/09/19 03:49:12;;;;;;;13.73;9.37;;;;;;;;;;4952357;28;20210;-78
2022/09/19 03:51:38;;;;;;;10.67;8.33;;;;;;;;;;4951019;28;20577;-78
2022/09/19 03:54:04;;;;;;;15.73;9.57;;;;;;;;;;4952052;28;20702;-78
2022/09/19 03:56:30;;;;;;;14.03;10.80;;;;;;;;;;4950842;28;20233;-77
2022/09/19 03:58:56;;;;;;;12.07;8.50;;;;;;;;;;4950462;28;20189;-78
2022/09/19 04:01:22;;;;;;;15.60;10.73;;;;;;;;;;4949734;28;20272;-78
2022/09/19 04:03:49;;;;;;;14.33;10.57;;;;;;;;;;4949634;28;20228;-77
2022/09/19 04:06:15;;;;;;;18.60;13.00;;;;;;;;;;4950376;28;20213;-78
2022/09/19 04:08:42;;;;;;;16.70;10.47;;;;;;;;;;4949164;28;20196;-78
2022/09/19 04:11:08;;;;;;;8.10;6.70;;;;;;;;;;4949545;28;20229;-77
2022/09/19 04:13:35;;;;;;;8.53;7.67;;;;;;;;;;4949557;28;20186;-77
2022/09/19 04:16:01;;;;;;;9.90;6.93;;;;;;;;;;4949277;28;20791;-78
2022/09/19 04:18:28;;;;;;;7.83;6.77;;;;;;;;;;4949421;28;20209;-78
2022/09/19 04:20:54;;;;;;;10.73;7.07;;;;;;;;;;4949810;28;20198;-78
2022/09/19 04:23:20;;;;;;;6.90;6.20;;;;;;;;;;4951576;28;20277;-79
2022/09/19 04:25:46;;;;;;;7.23;6.37;;;;;;;;;;4951263;28;20748;-79
2022/09/19 04:28:13;;;;;;;11.63;7.37;;;;;;;;;;4950047;28;20200;-79
2022/09/19 04:30:42;;;;;;;7.27;6.57;;;;;;;;;;4950514;28;20309;-79
2022/09/19 04:33:10;;;;;;;9.73;6.87;;;;;;;;;;4951635;28;20197;-79
2022/09/19 04:35:36;;;;;;;15.17;7.27;;;;;;;;;;4965735;28;20228;-76
2022/09/19 04:38:06;;;;;;;10.83;7.33;;;;;;;;;;4950479;28;20664;-79
2022/09/19 04:40:38;;;;;;;8.23;7.00;;;;;;;;;;4949998;28;20217;-78
2022/09/19 04:43:04;;;;;;;7.50;6.80;;;;;;;;;;4949644;28;20185;-77
2022/09/19 04:45:30;;;;;;;9.30;6.90;;;;;;;;;;4949077;28;20272;-78
2022/09/19 04:47:58;;;;;;;7.60;6.80;;;;;;;;;;4949581;28;20660;-78
2022/09/19 04:50:25;;;;;;;11.03;7.10;;;;;;;;;;4947727;28;20185;-78
2022/09/19 04:52:53;;;;;;;8.67;7.33;;;;;;;;;;4949025;28;20224;-78
2022/09/19 04:55:19;;;;;;;8.90;6.93;;;;;;;;;;4948833;28;20189;-78
2022/09/19 04:57:45;;;;;;;8.93;6.00;;;;;;;;;;4949291;28;20197;-79
2022/09/19 05:00:11;;;;;;;11.93;6.17;;;;;;;;;;4949780;28;20528;-77
2022/09/19 05:02:38;;;;;;;8.17;6.73;;;;;;;;;;4949347;28;20555;-78
2022/09/19 05:05:05;;;;;;;9.43;6.73;;;;;;;;;;4949361;28;20188;-78
2022/09/19 05:07:33;;;;;;;8.80;7.17;;;;;;;;;;4949142;28;20201;-78
2022/09/19 05:10:01;;;;;;;9.80;7.43;;;;;;;;;;4949715;28;20182;-78
2022/09/19 05:12:28;;;;;;;10.00;7.53;;;;;;;;;;4949837;28;20233;-76
2022/09/19 05:14:54;;;;;;;10.57;7.97;;;;;;;;;;4949911;28;20289;-79
2022/09/19 05:17:20;;;;;;;9.33;7.23;;;;;;;;;;4950569;28;20260;-79
2022/09/19 05:19:46;;;;;;;8.97;7.97;;;;;;;;;;4950027;28;20181;-78
2022/09/19 05:22:12;;;;;;;10.07;8.00;;;;;;;;;;4948409;28;20202;-78
2022/09/19 05:24:38;;;;;;;9.87;7.97;;;;;;;;;;4950066;28;20272;-76
2022/09/19 05:27:04;;;;;;;10.60;7.00;;;;;;;;;;4949048;28;20209;-78
2022/09/19 05:29:36;;;;;;;9.97;6.60;;;;;;;;;;4949155;28;20197;-77
2022/09/19 05:32:04;;;;;;;9.43;7.00;;;;;;;;;;4963380;28;20276;-77
2022/09/19 05:34:30;;;;;;;8.90;6.83;;;;;;;;;;4963167;28;20200;-79
2022/09/19 05:36:56;;;;;;;9.33;6.53;;;;;;;;;;4948141;28;20418;-77
2022/09/19 05:39:23;;;;;;;8.13;5.80;;;;;;;;;;4949718;28;20205;-78
2022/09/19 05:41:49;;;;;;;6.43;5.33;;;;;;;;;;4948514;28;20952;-78
2022/09/19 05:44:16;;;;;;;7.73;5.20;;;;;;;;;;4949345;28;20197;-79
2022/09/19 05:46:42;;;;;;;8.13;5.20;;;;;;;;;;4947898;28;20276;-77
2022/09/19 05:49:09;;;;;;;6.30;4.40;;;;;;;;;;4948819;28;20189;-77
2022/09/19 05:51:35;;;;;;;9.23;4.43;;;;;;;;;;4948305;28;20209;-78
2022/09/19 05:54:01;;;;;;;7.63;4.90;;;;;;;;;;4949207;28;20211;-79
2022/09/19 05:56:29;;;;;;;9.33;4.13;;;;;;;;;;4948260;28;20676;-76
2022/09/19 05:58:56;;;;;;;7.43;3.87;;;;;;;;;;4948925;28;20186;-79
2022/09/19 06:01:22;;;;;;;6.10;3.90;;;;;;;;;;4947264;28;20667;-77
2022/09/19 06:03:48;;;;;;;5.17;3.63;;;;;;;;;;4945571;28;20201;-79
2022/09/19 06:06:18;;;;;;;6.40;3.87;;;;;;;;;;4948316;28;20648;-77
2022/09/19 06:08:44;;;;;;;6.53;3.50;;;;;;;;;;4949300;28;20181;-78
2022/09/19 06:11:10;;;;;;;6.47;4.13;;;;;;;;;;4948410;28;20205;-78
2022/09/19 06:16:21;;;;;;;8.03;4.10;;;;;;;;;;4948002;28;20304;-78
2022/09/19 06:18:48;;;;;;;7.63;4.80;;;;;;;;;;4948793;28;20196;-79
2022/09/19 06:21:14;;;;;;;10.17;5.73;;;;;;;;;;4948452;28;20190;-79
2022/09/19 06:23:41;;;;;;;8.47;5.53;;;;;;;;;;4948531;28;20224;-77
2022/09/19 06:26:07;;;;;;;8.67;5.60;;;;;;;;;;4946789;28;20209;-79
2022/09/19 06:28:33;;;;;;;10.73;6.03;;;;;;;;;;4947315;28;20190;-77
2022/09/19 06:31:03;;;;;;;8.80;5.50;;;;;;;;;;4948010;28;20703;-78
2022/09/19 06:33:29;;;;;;;9.93;6.77;;;;;;;;;;4949498;28;20196;-78
2022/09/19 06:35:59;;;;;;;10.30;5.80;;;;;;;;;;4950049;28;20700;-79
2022/09/19 06:38:25;;;;;;;8.20;5.30;;;;;;;;;;4951608;28;20185;-79
2022/09/19 06:40:51;;;;;;;13.77;7.83;;;;;;;;;;4951561;28;20197;-76
2022/09/19 06:43:18;;;;;;;10.00;6.00;;;;;;;;;;4951997;28;20193;-78
2022/09/19 06:45:44;;;;;;;8.90;4.40;;;;;;;;;;4914895;28;1041540;-77
2022/09/19 06:48:10;;;;;;;12.73;5.47;;;;;;;;;;4950604;28;20868;-79
2022/09/19 06:50:36;;;;;;;4.30;2.77;;;;;;;;;;4948168;28;20213;-78
2022/09/19 06:53:03;;;;;;;5.87;2.83;;;;;;;;;;4948634;28;20239;-78
2022/09/19 06:55:29;;;;;;;8.03;4.10;;;;;;;;;;4949882;28;20209;-79
2022/09/19 06:58:00;;;;;;;12.47;6.33;;;;;;;;;;4950183;28;20182;-79
2022/09/19 07:00:28;;;;;;;9.77;4.40;;;;;;;;;;4949769;28;20189;-77
2022/09/19 07:02:59;;;;;;;11.43;7.00;;;;;;;;;;4947680;28;20196;-78
2022/09/19 07:05:26;;;;;;;12.77;8.20;;;;;;;;;;4963653;28;20292;-79
2022/09/19 07:07:52;;;;;;;8.97;4.73;;;;;;;;;;4950212;28;20571;-79
2022/09/19 07:10:22;;;;;;;15.23;10.60;;;;;;;;;;4950591;28;20177;-78
2022/09/19 07:12:55;;;;;;;12.50;6.27;;;;;;;;;;4951365;28;20244;-78
2022/09/19 07:15:22;;;;;;;8.93;4.33;;;;;;;;;;4950826;28;20210;-78
2022/09/19 07:17:48;;;;;;;9.87;5.27;;;;;;;;;;4951377;28;20653;-78
2022/09/19 07:20:14;;;;;;;11.07;5.20;;;;;;;;;;4950827;28;20265;-78
2022/09/19 07:22:40;;;;;;;8.43;4.53;;;;;;;;;;4950058;28;20236;-79
2022/09/19 07:25:07;;;;;;;9.33;4.60;;;;;;;;;;4949787;28;20225;-77
2022/09/19 07:27:33;;;;;;;10.87;5.07;;;;;;;;;;4951365;28;20178;-78
2022/09/19 07:29:59;;;;;;;10.77;6.20;;;;;;;;;;4950383;28;20220;-79
2022/09/19 07:32:25;;;;;;;9.90;4.97;;;;;;;;;;4950360;28;20229;-78
2022/09/19 07:34:51;;;;;;;13.27;6.90;;;;;;;;;;4951261;28;20708;-79
2022/09/19 07:37:17;;;;;;;12.93;6.67;;;;;;;;;;4951386;28;20680;-77
2022/09/19 07:39:43;;;;;;;10.67;5.60;;;;;;;;;;4951687;28;20185;-79
2022/09/19 07:42:09;;;;;;;12.50;7.27;;;;;;;;;;4951542;28;20735;-78
2022/09/19 07:44:35;;;;;;;8.80;4.63;;;;;;;;;;4950681;28;20186;-77
2022/09/19 07:49:45;;;;;;;7.15;3.28;;;;;;;;;;4948137;28;20244;-78
2022/09/19 07:52:11;;;;;;;8.50;3.63;;;;;;;;;;4950590;28;20671;-78
2022/09/19 07:54:37;;;;;;;8.23;3.63;;;;;;;;;;4950552;28;20268;-78
2022/09/19 07:57:03;;;;;;;5.20;3.13;;;;;;;;;;4950919;28;20237;-77
2022/09/19 07:59:29;;;;;;;8.48;4.40;;;;;;;;;;4949928;28;20656;-78
2022/09/19 08:01:55;;;;;;;6.65;3.83;;;;;;;;;;4950552;28;20659;-78
2022/09/19 08:04:21;;;;;;;5.00;3.28;;;;;;;;;;4950789;28;20272;-79
2022/09/19 08:06:47;;;;;;;8.30;3.60;;;;;;;;;;4951028;28;20672;-79
2022/09/19 08:09:13;;;;;;;7.72;3.20;;;;;;;;;;4951643;28;20194;-79
2022/09/19 08:11:39;;;;;;;8.52;3.33;;;;;;;;;;4965334;28;20205;-77
2022/09/19 08:14:05;;;;;;;8.50;3.40;;;;;;;;;;4949489;28;20309;-79
2022/09/19 08:16:31;;;;;;;6.90;2.83;;;;;;;;;;4950089;28;20205;-77
2022/09/19 08:18:58;;;;;;;6.13;2.50;;;;;;;;;;4965319;28;20188;-78
2022/09/19 08:21:24;;;;;;;9.70;3.28;;;;;;;;;;4949807;28;20213;-79
2022/09/19 08:23:50;;;;;;;7.13;2.92;;;;;;;;;;4950153;28;20218;-77
2022/09/19 08:26:17;;;;;;;7.20;3.33;;;;;;;;;;4949895;28;20209;-77
2022/09/19 08:28:43;;;;;;;7.75;3.15;;;;;;;;;;4950394;28;20190;-77
2022/09/19 08:31:09;;;;;;;6.43;3.00;;;;;;;;;;4949654;28;20209;-77
2022/09/19 08:33:35;;;;;;;6.88;3.05;;;;;;;;;;4949035;28;20189;-79
2022/09/19 08:36:01;;;;;;;9.20;2.60;;;;;;;;;;4949762;28;20205;-77
2022/09/19 08:38:27;;;;;;;6.93;2.90;;;;;;;;;;4950111;28;20181;-78
2022/09/19 08:41:09;;;;;;;9.13;3.60;;;;;;;;;;4949848;28;20196;-77
2022/09/19 08:43:43;;;;;;;7.63;3.38;;;;;;;;;;4949479;28;20649;-77
2022/09/19 08:46:33;;;;;;;8.32;3.85;;;;;;;;;;4949016;28;20229;-78
2022/09/19 08:48:59;;;;;;;7.72;3.00;;;;;;;;;;4949525;28;20181;-78
2022/09/19 08:51:44;;;;;;;12.60;3.40;;;;;;;;;;4948799;28;20206;-77
2022/09/19 08:54:30;;;;;;;10.48;3.08;;;;;;;;;;4949973;28;20224;-77
2022/09/19 08:56:57;;;;;;;10.00;3.20;;;;;;;;;;4949183;28;20288;-78
2022/09/19 08:59:25;;;;;;;8.50;3.28;;;;;;;;;;4963900;28;21323;-78
2022/09/19 09:01:54;;;;;;;10.00;3.67;;;;;;;;;;4947683;28;20280;-77
2022/09/19 09:04:30;;;;;;;8.18;3.15;;;;;;;;;;4963529;28;20220;-77
2022/09/19 09:07:06;;;;;;;8.55;3.30;;;;;;;;;;4949327;28;20209;-79
2022/09/19 09:09:35;;;;;;;7.38;2.85;;;;;;;;;;4948490;28;20698;-78
2022/09/19 09:12:01;;;;;;;6.70;2.55;;;;;;;;;;4949067;28;20201;-77
2022/09/19 09:14:46;;;;;;;6.35;2.50;;;;;;;;;;4963413;28;20221;-77
2022/09/19 09:17:19;;;;;;;8.65;3.00;;;;;;;;;;4947253;28;20292;-78
2022/09/19 09:19:47;;;;;;;8.25;2.70;;;;;;;;;;4948538;28;20189;-77
2022/09/19 09:22:24;;;;;;;7.97;2.55;;;;;;;;;;4946977;28;20209;-78
2022/09/19 09:24:58;;;;;;;10.70;3.13;;;;;;;;;;4946928;28;20204;-80
2022/09/19 09:27:26;;;;;;;7.70;2.65;;;;;;;;;;4948532;28;20237;-78
2022/09/19 09:29:58;;;;;;;7.57;2.67;;;;;;;;;;4948311;28;20248;-79
2022/09/19 09:32:26;;;;;;;7.50;2.75;;;;;;;;;;4946481;28;20208;-78
2022/09/19 09:34:58;;;;;;;7.10;2.47;;;;;;;;;;4948193;28;20182;-80
2022/09/19 09:37:24;;;;;;;6.60;2.42;;;;;;;;;;4948055;28;20201;-80
2022/09/19 09:39:59;;;;;;;6.45;2.10;;;;;;;;;;4948009;28;20190;-77
2022/09/19 09:42:32;;;;;;;7.53;2.13;;;;;;;;;;4947736;28;20177;-80
2022/09/19 09:45:10;;;;;;;11.23;2.17;;;;;;;;;;4948361;28;20209;-79
2022/09/19 09:47:48;;;;;;;7.55;2.40;;;;;;;;;;4947860;28;20197;-79
2022/09/19 09:50:27;;;;;;;9.98;2.40;;;;;;;;;;4947435;28;20694;-79
2022/09/19 09:53:01;;;;;;;5.15;2.20;;;;;;;;;;4946482;28;20734;-78
2022/09/19 09:58:52;;;;;;;11.02;2.05;;;;;;;;;;4947693;28;20196;-78
2022/09/19 10:04:30;;;;;;;8.68;2.30;;;;;;;;;;4944822;28;20458;-78
2022/09/19 10:06:59;;;;;;;9.63;2.33;;;;;;;;;;4959759;28;20213;-77
2022/09/19 10:09:33;;;;;;;10.05;2.42;;;;;;;;;;4949124;28;20568;-77
2022/09/19 10:11:58;;;;;;;5.97;1.73;;;;;;;;;;4950016;28;20219;-79
2022/09/19 10:14:28;;;;;;;6.97;2.22;;;;;;;;;;4949408;28;20181;-79
2022/09/19 10:16:56;;;;;;;5.60;1.95;;;;;;;;;;4948915;28;20209;-79
2022/09/19 10:19:29;;;;;;;7.57;2.17;;;;;;;;;;4948808;28;20209;-78
2022/09/19 10:21:56;;;;;;;8.20;1.75;;;;;;;;;;4948615;28;20968;-79
2022/09/19 10:24:41;;;;;;;8.18;2.20;;;;;;;;;;4946980;28;20197;-79
2022/09/19 10:27:31;;;;;;;5.55;1.80;;;;;;;;;;4948280;28;20283;-79
2022/09/19 10:30:01;;;;;;;5.40;1.48;;;;;;;;;;4949219;28;20234;-77
2022/09/19 10:32:37;;;;;;;7.20;1.80;;;;;;;;;;4949359;28;20325;-77
2022/09/19 10:35:28;;;;;;;9.57;4.30;;;;;;;;;;4949618;28;20308;-78
2022/09/19 10:38:01;;;;;;;14.75;5.57;;;;;;;;;;4948913;28;20264;-78
2022/09/19 10:40:29;;;;;;;17.42;6.28;;;;;;;;;;4949021;28;20178;-78
2022/09/19 10:42:55;;;;;;;11.32;5.00;;;;;;;;;;4952354;28;20189;-80
2022/09/19 10:45:25;;;;;;;6.65;2.75;;;;;;;;;;4951894;28;20244;-79
2022/09/19 10:47:53;;;;;;;14.10;6.70;;;;;;;;;;4951250;28;20780;-78
2022/09/19 10:50:19;;;;;;;13.00;6.90;;;;;;;;;;4951655;28;20194;-81
2022/09/19 10:52:48;;;;;;;13.13;5.70;;;;;;;;;;4951296;28;20205;-80
2022/09/19 10:55:20;;;;;;;9.52;4.57;;;;;;;;;;4951346;28;20648;-80
2022/09/19 10:57:50;;;;;;;10.98;4.82;;;;;;;;;;4951266;28;20174;-78
2022/09/19 11:00:27;;;;;;;7.60;4.22;;;;;;;;;;4951391;28;20670;-79
2022/09/19 11:02:56;;;;;;;15.65;4.63;;;;;;;;;;4951147;28;20193;-80
2022/09/19 11:05:24;;;;;;;7.53;4.00;;;;;;;;;;4950696;28;20265;-80
2022/09/19 11:07:54;;;;;;;8.43;2.97;;;;;;;;;;4965506;28;20178;-79
2022/09/19 11:10:37;;;;;;;6.70;2.30;;;;;;;;;;4950623;28;20231;-80
2022/09/19 11:13:07;;;;;;;5.95;2.53;;;;;;;;;;4950684;28;20181;-78
2022/09/19 11:15:36;;;;;;;7.35;2.80;;;;;;;;;;4950500;28;20204;-79
2022/09/19 11:18:09;;;;;;;6.03;2.33;;;;;;;;;;4951170;28;20220;-79
2022/09/19 11:20:40;;;;;;;5.78;2.42;;;;;;;;;;4949279;28;20178;-79
2022/09/19 11:23:28;;;;;;;2.42;1.90;;;;;;;;;;4950919;28;20181;-78
2022/09/19 11:26:12;;;;;;;6.60;2.90;;;;;;;;;;4950582;28;20209;-79
2022/09/19 11:29:06;;;;;;;5.65;2.17;;;;;;;;;;4950857;28;20185;-78
2022/09/19 11:31:44;;;;;;;5.88;2.13;;;;;;;;;;4950441;28;20676;-80
2022/09/19 11:34:19;;;;;;;3.75;1.90;;;;;;;;;;4949142;28;20192;-80
2022/09/19 11:36:54;;;;;;;4.25;2.35;;;;;;;;;;4949794;28;20201;-80
2022/09/19 11:39:30;;;;;;;4.15;1.80;;;;;;;;;;4950323;28;20276;-78
2022/09/19 11:42:02;;;;;;;7.25;2.38;;;;;;;;;;4950501;28;20182;-80
2022/09/19 11:44:31;;;;;;;3.30;1.60;;;;;;;;;;4964814;28;20189;-79
2022/09/19 11:47:12;;;;;;;4.57;2.28;;;;;;;;;;4950382;28;20295;-80
2022/09/19 11:49:57;;;;;;;5.20;2.30;;;;;;;;;;4948919;28;20178;-78
2022/09/19 11:52:29;;;;;;;5.05;1.77;;;;;;;;;;4963011;28;20862;-79
2022/09/19 11:55:12;;;;;;;3.85;1.23;;;;;;;;;;4948079;28;20185;-79
2022/09/19 11:57:50;;;;;;;4.45;1.65;;;;;;;;;;4946031;28;20181;-79
2022/09/19 12:00:18;;;;;;;4.20;1.10;;;;;;;;;;4945337;28;20217;-79
2022/09/19 12:02:59;;;;;;;4.30;1.42;;;;;;;;;;4945599;28;20192;-80
2022/09/19 12:05:45;;;;;;;4.07;1.38;;;;;;;;;;4946590;28;20236;-79
2022/09/19 12:08:12;;;;;;;5.35;1.40;;;;;;;;;;4945506;28;20541;-78
2022/09/19 12:10:43;;;;;;;5.00;1.45;;;;;;;;;;4945939;28;20197;-79
2022/09/19 12:13:14;;;;;;;4.40;1.13;;;;;;;;;;4945020;28;20695;-80
2022/09/19 12:15:44;;;;;;;2.95;0.98;;;;;;;;;;4946885;28;20676;-78
2022/09/19 12:18:24;;;;;;;4.80;1.20;;;;;;;;;;4946582;28;20453;-79
2022/09/19 12:20:53;;;;;;;6.10;1.40;;;;;;;;;;4947216;28;20560;-79
2022/09/19 12:26:09;;;;;;;4.95;1.30;;;;;;;;;;4947225;28;20255;-78
2022/09/19 12:28:47;;;;;;;3.25;1.10;;;;;;;;;;4945330;28;20185;-78
2022/09/19 12:31:16;;;;;;;2.50;0.85;;;;;;;;;;4946566;28;20201;-78
2022/09/19 12:33:43;;;;;;;2.17;0.60;;;;;;;;;;4945363;28;20178;-78
2022/09/19 12:36:15;;;;;;;2.20;0.50;;;;;;;;;;4946767;28;20201;-78
2022/09/19 12:38:45;;;;;;;1.88;0.60;;;;;;;;;;4945350;28;20194;-78
2022/09/19 12:41:21;;;;;;;2.58;0.63;;;;;;;;;;4946841;28;20190;-80
2022/09/19 12:43:57;;;;;;;2.08;0.70;;;;;;;;;;4946374;28;20683;-78
2022/09/19 12:46:23;;;;;;;2.10;0.90;;;;;;;;;;4945321;28;20227;-78
2022/09/19 12:48:52;;;;;;;3.90;1.23;;;;;;;;;;4944650;28;20181;-78
2022/09/19 12:51:33;;;;;;;4.60;2.00;;;;;;;;;;4946758;28;20687;-78
2022/09/19 12:54:04;;;;;;;3.58;1.95;;;;;;;;;;4946672;28;20181;-80
2022/09/19 12:56:32;;;;;;;2.17;0.80;;;;;;;;;;4945280;28;20233;-78
2022/09/19 12:59:25;;;;;;;4.57;1.80;;;;;;;;;;4946188;28;20193;-78
2022/09/19 13:01:55;;;;;;;4.25;1.77;;;;;;;;;;4943539;28;20198;-79
2022/09/19 13:04:34;;;;;;;2.92;0.90;;;;;;;;;;4944918;28;20492;-80
2022/09/19 13:07:13;;;;;;;4.88;1.27;;;;;;;;;;4946418;28;20212;-78
2022/09/19 13:09:49;;;;;;;3.22;1.00;;;;;;;;;;4946412;28;20185;-79
2022/09/19 13:12:46;;;;;;;2.92;0.80;;;15.10;1.00;;;;;;4946135;28;20572;-78
2022/09/19 13:15:24;;;;;;;2.20;0.52;;;14.50;1.00;;;;;;4893900;28;20475;-79
2022/09/19 13:23:31;;;;;;;2.38;0.55;;;13.30;1.00;;;;;;4946325;28;20185;-78
2022/09/19 13:25:57;;;;;;;2.47;0.70;;;13.00;1.00;;;;;;4947657;28;20202;-79
2022/09/19 13:28:26;;;;;;;2.78;1.10;;;12.50;99.90;;;;;;4946073;28;20664;-79
2022/09/19 13:31:04;;;;;;;4.18;1.10;;;12.30;99.90;;;;;;4947514;28;20655;-78
2022/09/19 13:33:58;;;;;;;2.43;0.80;;;11.80;99.90;;;;;;4947182;28;20190;-80
2022/09/19 13:36:24;;;;;;;4.23;1.10;;;11.40;99.90;;;;;;4945374;28;20213;-80
2022/09/19 13:38:53;;;;;;;1.57;0.90;;;11.30;99.90;;;;;;4947472;28;20228;-79
2022/09/19 13:41:28;;;;;;;2.17;1.00;;;11.00;99.90;;;;;;4946434;28;20209;-78
2022/09/19 13:44:08;;;;;;;1.63;0.83;;;10.80;99.90;;;;;;4945439;28;20192;-79
2022/09/19 13:46:53;;;;;;;2.10;0.93;;;10.80;99.90;;;;;;4960164;28;20232;-78
2022/09/19 13:49:33;;;;;;;1.00;0.60;;;10.70;99.90;;;;;;4946076;28;20224;-78
2022/09/19 13:52:21;;;;;;;2.10;0.83;;;10.60;99.90;;;;;;4945703;28;20303;-78
2022/09/19 13:54:50;;;;;;;2.57;0.73;;;10.60;99.90;;;;;;4947207;28;20182;-78
2022/09/19 13:57:28;;;;;;;1.93;0.90;;;10.70;99.90;;;;;;4946917;28;20200;-78
2022/09/19 13:59:59;;;;;;;2.93;0.73;;;10.70;99.90;;;;;;4947158;28;20212;-78
2022/09/19 14:02:33;;;;;;;2.57;1.10;;;10.70;99.90;;;;;;4945452;28;20848;-78
2022/09/19 14:05:10;;;;;;;1.50;1.00;;;10.70;99.90;;;;;;4947757;28;20429;-79
2022/09/19 14:07:54;;;;;;;3.43;2.00;;;10.80;99.90;;;;;;4962328;28;20177;-79
2022/09/19 14:10:47;;;;;;;1.80;0.97;;;11.00;99.90;;;;;;4948294;28;20316;-79
2022/09/19 14:13:27;;;;;;;3.50;1.30;;;11.20;99.90;;;;;;4947538;28;20608;-79
2022/09/19 14:16:07;;;;;;;1.63;1.00;;;11.50;99.90;;;;;;4949587;28;20260;-78
2022/09/19 14:18:36;;;;;;;2.20;1.00;;;11.60;99.90;;;;;;4948156;28;20183;-79
2022/09/19 14:21:03;;;;;;;3.17;1.00;;;11.60;99.90;;;;;;4949701;28;20215;-79
2022/09/19 14:23:31;;;;;;;2.00;0.90;;;11.80;99.90;;;;;;4949028;28;21108;-79
2022/09/19 14:26:06;;;;;;;1.27;0.97;;;11.80;99.90;;;;;;4949154;28;20213;-79
2022/09/19 14:29:00;;;;;;;4.18;0.85;;;11.80;99.90;;;;;;4947873;28;20221;-77
2022/09/19 14:31:41;;;;;;;2.67;1.00;;;11.80;99.90;;;;;;4949000;28;20194;-79
2022/09/19 14:34:34;;;;;;;1.23;0.90;;;12.00;99.90;;;;;;4949226;28;20181;-77
2022/09/19 14:37:34;;;;;;;1.45;0.60;;;12.20;99.90;;;;;;4949127;28;20228;-77
2022/09/19 14:40:38;;;;;;;1.45;0.80;;;12.40;99.90;;;;;;4964261;28;20189;-80
2022/09/19 14:43:16;;;;;;;7.03;4.10;;;12.60;99.90;;;;;;4947493;28;20197;-78
2022/09/19 14:46:06;;;;;;;3.53;2.25;;;12.90;99.90;;;;;;4948892;28;20228;-78
2022/09/19 14:48:49;;;;;;;16.80;8.73;;;13.10;99.90;;;;;;4948501;28;20182;-79
2022/09/19 14:51:30;;;;;;;10.95;5.57;;;13.20;99.90;;;;;;4949008;28;20205;-79
2022/09/19 14:54:13;;;;;;;8.23;4.50;;;13.30;99.90;;;;;;4949053;28;20204;-79
2022/09/19 14:56:39;;;;;;;14.88;7.32;;;13.40;99.90;;;;;;4952983;28;20743;-78
2022/09/19 14:59:05;;;;;;;22.70;10.75;;;13.40;99.90;;;;;;4952344;28;20266;-80
2022/09/19 15:01:33;;;;;;;10.57;4.95;;;13.50;99.90;;;;;;4950851;28;20193;-79
2022/09/19 15:04:08;;;;;;;24.73;10.63;;;13.60;99.90;;;;;;4950853;28;20189;-78
2022/09/19 15:06:36;;;;;;;14.85;9.32;;;13.60;99.90;;;;;;4950721;28;20291;-80
2022/09/19 15:09:02;;;;;;;31.58;16.88;;;13.60;99.90;;;;;;4949579;28;20205;-79
2022/09/19 15:11:29;;;;;;;25.75;14.63;;;13.60;99.90;;;;;;4948603;28;20190;-79